Terminal Aerodrome Forecast
Issued by NWS Rapid City, SD

Home | Current Version | Previous Version | Text Only | Print | Product List | Glossary Off
Versions: 1 2 3 4 5 6 7 8 9 10 11 12 13 14 15 16

000
FTUS43 KUNR 171100
TAFRAP
TAF
KRAP 171120Z 1712/1812 15013KT P6SM OVC100
      TEMPO 1712/1716 BKN015
     FM171600 16013KT P6SM SCT030 BKN100=

USA.gov is the U.S. government's official web portal to all federal, state and local government web resources and services.